sensor_id;sensor_type;location;lat;lon;timestamp;P1;durP1;ratioP1;P2;durP2;ratioP2
47856;SDS011;33618;49.972;8.242;2023-11-19T00:00:29;1.08;;;1.00;;
47856;SDS011;33618;49.972;8.242;2023-11-19T00:02:56;2.28;;;1.27;;
47856;SDS011;33618;49.972;8.242;2023-11-19T00:05:24;1.33;;;1.23;;
47856;SDS011;33618;49.972;8.242;2023-11-19T00:07:51;1.58;;;1.15;;
47856;SDS011;33618;49.972;8.242;2023-11-19T00:10:18;0.90;;;0.90;;
47856;SDS011;33618;49.972;8.242;2023-11-19T00:12:47;0.80;;;0.80;;
47856;SDS011;33618;49.972;8.242;2023-11-19T00:15:39;1.10;;;1.05;;
47856;SDS011;33618;49.972;8.242;2023-11-19T00:18:05;1.10;;;0.90;;
47856;SDS011;33618;49.972;8.242;2023-11-19T00:20:33;3.50;;;1.27;;
47856;SDS011;33618;49.972;8.242;2023-11-19T00:23:00;1.20;;;1.10;;
47856;SDS011;33618;49.972;8.242;2023-11-19T00:25:29;0.85;;;0.85;;
47856;SDS011;33618;49.972;8.242;2023-11-19T00:27:56;1.35;;;1.25;;
47856;SDS011;33618;49.972;8.242;2023-11-19T00:30:23;2.33;;;1.10;;
47856;SDS011;33618;49.972;8.242;2023-11-19T00:32:50;1.45;;;1.00;;
47856;SDS011;33618;49.972;8.242;2023-11-19T00:35:18;4.50;;;1.23;;
47856;SDS011;33618;49.972;8.242;2023-11-19T00:37:45;0.93;;;0.93;;
47856;SDS011;33618;49.972;8.242;2023-11-19T00:40:33;0.90;;;0.90;;
47856;SDS011;33618;49.972;8.242;2023-11-19T00:43:00;0.95;;;0.95;;
47856;SDS011;33618;49.972;8.242;2023-11-19T00:45:27;0.90;;;0.90;;
47856;SDS011;33618;49.972;8.242;2023-11-19T00:47:55;0.77;;;0.77;;
47856;SDS011;33618;49.972;8.242;2023-11-19T00:50:22;1.67;;;1.08;;
47856;SDS011;33618;49.972;8.242;2023-11-19T00:52:52;1.35;;;1.13;;
47856;SDS011;33618;49.972;8.242;2023-11-19T00:55:19;1.25;;;1.08;;
47856;SDS011;33618;49.972;8.242;2023-11-19T00:57:47;2.78;;;1.35;;
47856;SDS011;33618;49.972;8.242;2023-11-19T01:00:14;2.53;;;1.25;;
47856;SDS011;33618;49.972;8.242;2023-11-19T01:02:46;4.15;;;1.17;;
47856;SDS011;33618;49.972;8.242;2023-11-19T01:05:17;1.50;;;1.00;;
47856;SDS011;33618;49.972;8.242;2023-11-19T01:07:48;1.20;;;1.10;;
47856;SDS011;33618;49.972;8.242;2023-11-19T01:10:16;2.15;;;1.33;;
47856;SDS011;33618;49.972;8.242;2023-11-19T01:12:45;1.52;;;1.42;;
47856;SDS011;33618;49.972;8.242;2023-11-19T01:15:12;2.55;;;1.63;;
47856;SDS011;33618;49.972;8.242;2023-11-19T01:17:39;1.10;;;1.00;;
47856;SDS011;33618;49.972;8.242;2023-11-19T01:20:18;0.90;;;0.90;;
47856;SDS011;33618;49.972;8.242;2023-11-19T01:22:47;2.88;;;0.98;;
47856;SDS011;33618;49.972;8.242;2023-11-19T01:25:15;0.80;;;0.80;;
47856;SDS011;33618;49.972;8.242;2023-11-19T01:27:42;0.85;;;0.85;;
47856;SDS011;33618;49.972;8.242;2023-11-19T01:30:09;1.00;;;1.00;;
47856;SDS011;33618;49.972;8.242;2023-11-19T01:32:39;0.70;;;0.70;;
47856;SDS011;33618;49.972;8.242;2023-11-19T01:35:07;0.50;;;0.50;;
47856;SDS011;33618;49.972;8.242;2023-11-19T01:37:34;0.60;;;0.60;;
47856;SDS011;33618;49.972;8.242;2023-11-19T01:40:02;0.77;;;0.77;;
47856;SDS011;33618;49.972;8.242;2023-11-19T01:42:37;0.70;;;0.70;;
47856;SDS011;33618;49.972;8.242;2023-11-19T01:45:05;0.47;;;0.47;;
47856;SDS011;33618;49.972;8.242;2023-11-19T01:47:34;3.08;;;0.70;;
47856;SDS011;33618;49.972;8.242;2023-11-19T01:50:03;0.50;;;0.50;;
47856;SDS011;33618;49.972;8.242;2023-11-19T01:52:36;0.40;;;0.40;;
47856;SDS011;33618;49.972;8.242;2023-11-19T01:55:04;0.70;;;0.70;;
47856;SDS011;33618;49.972;8.242;2023-11-19T01:57:33;0.40;;;0.40;;
47856;SDS011;33618;49.972;8.242;2023-11-19T02:00:05;0.40;;;0.40;;
47856;SDS011;33618;49.972;8.242;2023-11-19T02:02:33;1.40;;;0.60;;
47856;SDS011;33618;49.972;8.242;2023-11-19T02:05:01;0.40;;;0.40;;
47856;SDS011;33618;49.972;8.242;2023-11-19T02:07:28;0.40;;;0.40;;
47856;SDS011;33618;49.972;8.242;2023-11-19T02:09:55;0.43;;;0.40;;
47856;SDS011;33618;49.972;8.242;2023-11-19T02:12:26;0.50;;;0.50;;
47856;SDS011;33618;49.972;8.242;2023-11-19T02:14:54;0.50;;;0.50;;
47856;SDS011;33618;49.972;8.242;2023-11-19T02:17:28;1.05;;;0.60;;
47856;SDS011;33618;49.972;8.242;2023-11-19T02:19:57;0.63;;;0.50;;
47856;SDS011;33618;49.972;8.242;2023-11-19T02:22:24;0.28;;;0.28;;
47856;SDS011;33618;49.972;8.242;2023-11-19T02:24:52;0.30;;;0.30;;
47856;SDS011;33618;49.972;8.242;2023-11-19T02:30:31;0.40;;;0.40;;
47856;SDS011;33618;49.972;8.242;2023-11-19T02:32:58;0.30;;;0.30;;
47856;SDS011;33618;49.972;8.242;2023-11-19T02:35:32;0.28;;;0.28;;
47856;SDS011;33618;49.972;8.242;2023-11-19T02:38:00;0.35;;;0.35;;
47856;SDS011;33618;49.972;8.242;2023-11-19T02:40:27;0.30;;;0.30;;
47856;SDS011;33618;49.972;8.242;2023-11-19T02:42:55;1.10;;;0.20;;
47856;SDS011;33618;49.972;8.242;2023-11-19T02:45:24;0.43;;;0.30;;
47856;SDS011;33618;49.972;8.242;2023-11-19T02:47:52;4.03;;;0.68;;
47856;SDS011;33618;49.972;8.242;2023-11-19T02:50:21;0.30;;;0.30;;
47856;SDS011;33618;49.972;8.242;2023-11-19T02:52:53;0.32;;;0.30;;
47856;SDS011;33618;49.972;8.242;2023-11-19T02:55:23;0.85;;;0.30;;
47856;SDS011;33618;49.972;8.242;2023-11-19T02:57:51;0.30;;;0.30;;
47856;SDS011;33618;49.972;8.242;2023-11-19T03:00:21;0.30;;;0.30;;
47856;SDS011;33618;49.972;8.242;2023-11-19T03:03:00;0.32;;;0.32;;
47856;SDS011;33618;49.972;8.242;2023-11-19T03:05:36;1.00;;;0.30;;
47856;SDS011;33618;49.972;8.242;2023-11-19T03:08:03;0.30;;;0.30;;
47856;SDS011;33618;49.972;8.242;2023-11-19T03:10:31;0.55;;;0.45;;
47856;SDS011;33618;49.972;8.242;2023-11-19T03:12:58;0.98;;;0.40;;
47856;SDS011;33618;49.972;8.242;2023-11-19T03:15:28;0.55;;;0.45;;
47856;SDS011;33618;49.972;8.242;2023-11-19T03:17:55;0.28;;;0.28;;
47856;SDS011;33618;49.972;8.242;2023-11-19T03:20:22;3.45;;;0.40;;
47856;SDS011;33618;49.972;8.242;2023-11-19T03:22:50;0.30;;;0.30;;
47856;SDS011;33618;49.972;8.242;2023-11-19T03:25:17;0.57;;;0.57;;
47856;SDS011;33618;49.972;8.242;2023-11-19T03:27:45;0.60;;;0.60;;
47856;SDS011;33618;49.972;8.242;2023-11-19T03:30:11;0.40;;;0.40;;
47856;SDS011;33618;49.972;8.242;2023-11-19T03:32:38;0.47;;;0.47;;
47856;SDS011;33618;49.972;8.242;2023-11-19T03:35:05;0.65;;;0.50;;
47856;SDS011;33618;49.972;8.242;2023-11-19T03:37:36;0.52;;;0.52;;
47856;SDS011;33618;49.972;8.242;2023-11-19T03:40:03;0.77;;;0.77;;
47856;SDS011;33618;49.972;8.242;2023-11-19T03:42:31;0.43;;;0.43;;
47856;SDS011;33618;49.972;8.242;2023-11-19T03:44:58;1.10;;;0.50;;
47856;SDS011;33618;49.972;8.242;2023-11-19T03:47:25;0.50;;;0.50;;
47856;SDS011;33618;49.972;8.242;2023-11-19T03:49:52;0.70;;;0.70;;
47856;SDS011;33618;49.972;8.242;2023-11-19T03:52:19;0.73;;;0.73;;
47856;SDS011;33618;49.972;8.242;2023-11-19T03:54:47;0.65;;;0.63;;
47856;SDS011;33618;49.972;8.242;2023-11-19T03:57:13;0.60;;;0.60;;
47856;SDS011;33618;49.972;8.242;2023-11-19T03:59:42;0.93;;;0.93;;
47856;SDS011;33618;49.972;8.242;2023-11-19T04:02:09;0.57;;;0.55;;
47856;SDS011;33618;49.972;8.242;2023-11-19T04:04:36;1.35;;;0.90;;
47856;SDS011;33618;49.972;8.242;2023-11-19T04:07:05;1.35;;;1.08;;
47856;SDS011;33618;49.972;8.242;2023-11-19T04:09:32;0.80;;;0.80;;
47856;SDS011;33618;49.972;8.242;2023-11-19T04:11:59;1.13;;;1.02;;
47856;SDS011;33618;49.972;8.242;2023-11-19T04:14:27;0.88;;;0.80;;
47856;SDS011;33618;49.972;8.242;2023-11-19T04:16:53;1.40;;;1.30;;
47856;SDS011;33618;49.972;8.242;2023-11-19T04:19:21;8.60;;;0.70;;
47856;SDS011;33618;49.972;8.242;2023-11-19T04:21:48;0.80;;;0.80;;
47856;SDS011;33618;49.972;8.242;2023-11-19T04:24:15;0.63;;;0.63;;
47856;SDS011;33618;49.972;8.242;2023-11-19T04:26:43;0.73;;;0.73;;
47856;SDS011;33618;49.972;8.242;2023-11-19T04:29:15;0.90;;;0.90;;
47856;SDS011;33618;49.972;8.242;2023-11-19T04:31:45;0.90;;;0.90;;
47856;SDS011;33618;49.972;8.242;2023-11-19T04:34:12;0.93;;;0.93;;
47856;SDS011;33618;49.972;8.242;2023-11-19T04:36:39;0.50;;;0.50;;
47856;SDS011;33618;49.972;8.242;2023-11-19T04:39:06;1.45;;;0.98;;
47856;SDS011;33618;49.972;8.242;2023-11-19T04:41:48;1.27;;;0.90;;
47856;SDS011;33618;49.972;8.242;2023-11-19T04:44:16;0.93;;;0.90;;
47856;SDS011;33618;49.972;8.242;2023-11-19T04:46:44;0.55;;;0.55;;
47856;SDS011;33618;49.972;8.242;2023-11-19T04:49:12;1.73;;;0.90;;
47856;SDS011;33618;49.972;8.242;2023-11-19T04:51:40;1.30;;;1.20;;
47856;SDS011;33618;49.972;8.242;2023-11-19T04:54:08;0.90;;;0.90;;
47856;SDS011;33618;49.972;8.242;2023-11-19T04:56:36;1.77;;;0.93;;
47856;SDS011;33618;49.972;8.242;2023-11-19T04:59:04;1.60;;;0.90;;
47856;SDS011;33618;49.972;8.242;2023-11-19T05:01:35;0.90;;;0.90;;
47856;SDS011;33618;49.972;8.242;2023-11-19T05:04:02;0.95;;;0.95;;
47856;SDS011;33618;49.972;8.242;2023-11-19T05:06:30;1.00;;;1.00;;
47856;SDS011;33618;49.972;8.242;2023-11-19T05:08:58;2.10;;;1.00;;
47856;SDS011;33618;49.972;8.242;2023-11-19T05:11:34;2.38;;;1.10;;
47856;SDS011;33618;49.972;8.242;2023-11-19T05:14:04;0.80;;;0.80;;
47856;SDS011;33618;49.972;8.242;2023-11-19T05:16:32;0.85;;;0.85;;
47856;SDS011;33618;49.972;8.242;2023-11-19T05:19:00;0.90;;;0.90;;
47856;SDS011;33618;49.972;8.242;2023-11-19T05:21:27;3.28;;;0.90;;
47856;SDS011;33618;49.972;8.242;2023-11-19T05:23:54;3.22;;;1.60;;
47856;SDS011;33618;49.972;8.242;2023-11-19T05:26:21;2.03;;;1.23;;
47856;SDS011;33618;49.972;8.242;2023-11-19T05:28:52;2.10;;;1.40;;
47856;SDS011;33618;49.972;8.242;2023-11-19T05:31:21;1.30;;;1.20;;
47856;SDS011;33618;49.972;8.242;2023-11-19T05:33:48;2.08;;;1.52;;
47856;SDS011;33618;49.972;8.242;2023-11-19T05:36:15;1.35;;;1.25;;
47856;SDS011;33618;49.972;8.242;2023-11-19T05:38:43;1.60;;;1.50;;
47856;SDS011;33618;49.972;8.242;2023-11-19T05:41:11;1.88;;;1.65;;
47856;SDS011;33618;49.972;8.242;2023-11-19T05:43:38;2.30;;;1.60;;
47856;SDS011;33618;49.972;8.242;2023-11-19T05:46:07;1.58;;;1.40;;
47856;SDS011;33618;49.972;8.242;2023-11-19T05:48:38;1.92;;;1.30;;
47856;SDS011;33618;49.972;8.242;2023-11-19T05:51:05;1.50;;;1.40;;
47856;SDS011;33618;49.972;8.242;2023-11-19T05:53:32;1.27;;;1.17;;
47856;SDS011;33618;49.972;8.242;2023-11-19T05:55:59;1.60;;;1.50;;
47856;SDS011;33618;49.972;8.242;2023-11-19T05:58:30;1.60;;;1.50;;
47856;SDS011;33618;49.972;8.242;2023-11-19T06:00:58;1.83;;;1.60;;
47856;SDS011;33618;49.972;8.242;2023-11-19T06:03:28;2.42;;;2.03;;
47856;SDS011;33618;49.972;8.242;2023-11-19T06:05:55;1.63;;;1.52;;
47856;SDS011;33618;49.972;8.242;2023-11-19T06:08:22;4.57;;;1.88;;
47856;SDS011;33618;49.972;8.242;2023-11-19T06:10:49;1.98;;;1.52;;
47856;SDS011;33618;49.972;8.242;2023-11-19T06:13:17;2.80;;;2.13;;
47856;SDS011;33618;49.972;8.242;2023-11-19T06:15:45;1.63;;;1.50;;
47856;SDS011;33618;49.972;8.242;2023-11-19T06:18:12;4.93;;;2.22;;
47856;SDS011;33618;49.972;8.242;2023-11-19T06:20:40;2.05;;;1.95;;
47856;SDS011;33618;49.972;8.242;2023-11-19T06:23:09;3.13;;;2.30;;
47856;SDS011;33618;49.972;8.242;2023-11-19T06:25:36;2.35;;;1.90;;
47856;SDS011;33618;49.972;8.242;2023-11-19T06:28:03;1.58;;;1.48;;
47856;SDS011;33618;49.972;8.242;2023-11-19T06:30:30;2.95;;;2.65;;
47856;SDS011;33618;49.972;8.242;2023-11-19T06:32:59;2.75;;;2.55;;
47856;SDS011;33618;49.972;8.242;2023-11-19T06:35:26;4.32;;;1.77;;
47856;SDS011;33618;49.972;8.242;2023-11-19T06:37:56;2.35;;;2.25;;
47856;SDS011;33618;49.972;8.242;2023-11-19T06:40:39;5.72;;;3.88;;
47856;SDS011;33618;49.972;8.242;2023-11-19T06:43:07;7.20;;;4.38;;
47856;SDS011;33618;49.972;8.242;2023-11-19T06:45:37;3.80;;;3.40;;
47856;SDS011;33618;49.972;8.242;2023-11-19T06:48:04;3.15;;;2.85;;
47856;SDS011;33618;49.972;8.242;2023-11-19T06:50:32;4.22;;;3.25;;
47856;SDS011;33618;49.972;8.242;2023-11-19T06:53:00;4.30;;;3.58;;
47856;SDS011;33618;49.972;8.242;2023-11-19T06:55:27;3.25;;;2.95;;
47856;SDS011;33618;49.972;8.242;2023-11-19T06:57:54;4.25;;;3.72;;
47856;SDS011;33618;49.972;8.242;2023-11-19T07:00:27;5.13;;;3.42;;
47856;SDS011;33618;49.972;8.242;2023-11-19T07:02:58;4.78;;;3.42;;
47856;SDS011;33618;49.972;8.242;2023-11-19T07:05:27;4.75;;;3.72;;
47856;SDS011;33618;49.972;8.242;2023-11-19T07:07:54;4.93;;;3.63;;
47856;SDS011;33618;49.972;8.242;2023-11-19T07:10:22;3.65;;;3.35;;
47856;SDS011;33618;49.972;8.242;2023-11-19T07:12:49;4.13;;;3.75;;
47856;SDS011;33618;49.972;8.242;2023-11-19T07:15:17;5.05;;;4.13;;
47856;SDS011;33618;49.972;8.242;2023-11-19T07:17:46;4.13;;;3.72;;
47856;SDS011;33618;49.972;8.242;2023-11-19T07:20:26;5.10;;;3.95;;
47856;SDS011;33618;49.972;8.242;2023-11-19T07:22:54;6.15;;;4.50;;
47856;SDS011;33618;49.972;8.242;2023-11-19T07:25:24;3.67;;;3.20;;
47856;SDS011;33618;49.972;8.242;2023-11-19T07:27:51;6.00;;;4.60;;
47856;SDS011;33618;49.972;8.242;2023-11-19T07:30:19;5.82;;;5.18;;
47856;SDS011;33618;49.972;8.242;2023-11-19T07:32:45;5.68;;;5.10;;
47856;SDS011;33618;49.972;8.242;2023-11-19T07:35:12;9.40;;;8.13;;
47856;SDS011;33618;49.972;8.242;2023-11-19T07:37:39;12.90;;;8.30;;
47856;SDS011;33618;49.972;8.242;2023-11-19T07:40:06;9.65;;;8.55;;
47856;SDS011;33618;49.972;8.242;2023-11-19T07:42:35;8.93;;;6.38;;
47856;SDS011;33618;49.972;8.242;2023-11-19T07:45:02;12.95;;;8.07;;
47856;SDS011;33618;49.972;8.242;2023-11-19T07:47:29;11.85;;;7.93;;
47856;SDS011;33618;49.972;8.242;2023-11-19T07:49:56;9.70;;;6.63;;
47856;SDS011;33618;49.972;8.242;2023-11-19T07:52:23;16.83;;;6.22;;
47856;SDS011;33618;49.972;8.242;2023-11-19T07:54:50;19.63;;;9.88;;
47856;SDS011;33618;49.972;8.242;2023-11-19T07:57:17;11.48;;;5.60;;
47856;SDS011;33618;49.972;8.242;2023-11-19T07:59:44;14.85;;;7.68;;
47856;SDS011;33618;49.972;8.242;2023-11-19T08:02:11;11.90;;;8.85;;
47856;SDS011;33618;49.972;8.242;2023-11-19T08:04:38;12.40;;;8.65;;
47856;SDS011;33618;49.972;8.242;2023-11-19T08:07:11;7.70;;;6.18;;
47856;SDS011;33618;49.972;8.242;2023-11-19T08:09:39;35.20;;;9.55;;
47856;SDS011;33618;49.972;8.242;2023-11-19T08:12:16;19.50;;;7.15;;
47856;SDS011;33618;49.972;8.242;2023-11-19T08:14:43;12.68;;;9.32;;
47856;SDS011;33618;49.972;8.242;2023-11-19T08:17:10;11.88;;;7.50;;
47856;SDS011;33618;49.972;8.242;2023-11-19T08:19:37;8.43;;;5.63;;
47856;SDS011;33618;49.972;8.242;2023-11-19T08:22:04;3.20;;;2.67;;
47856;SDS011;33618;49.972;8.242;2023-11-19T08:24:31;4.07;;;1.75;;
47856;SDS011;33618;49.972;8.242;2023-11-19T08:26:58;5.43;;;1.55;;
47856;SDS011;33618;49.972;8.242;2023-11-19T08:29:29;4.35;;;1.52;;
47856;SDS011;33618;49.972;8.242;2023-11-19T08:31:56;3.85;;;1.20;;
47856;SDS011;33618;49.972;8.242;2023-11-19T08:34:22;1.85;;;1.23;;
47856;SDS011;33618;49.972;8.242;2023-11-19T08:36:50;2.85;;;1.20;;
47856;SDS011;33618;49.972;8.242;2023-11-19T08:39:19;4.93;;;1.35;;
47856;SDS011;33618;49.972;8.242;2023-11-19T08:41:47;3.38;;;1.30;;
47856;SDS011;33618;49.972;8.242;2023-11-19T08:44:14;4.38;;;1.20;;
47856;SDS011;33618;49.972;8.242;2023-11-19T08:46:48;2.97;;;1.20;;
47856;SDS011;33618;49.972;8.242;2023-11-19T08:49:18;4.40;;;1.27;;
47856;SDS011;33618;49.972;8.242;2023-11-19T08:51:44;2.50;;;1.27;;
47856;SDS011;33618;49.972;8.242;2023-11-19T08:54:11;2.10;;;1.27;;
47856;SDS011;33618;49.972;8.242;2023-11-19T08:56:39;2.97;;;0.90;;
47856;SDS011;33618;49.972;8.242;2023-11-19T08:59:06;3.20;;;1.40;;
47856;SDS011;33618;49.972;8.242;2023-11-19T09:01:33;4.70;;;1.25;;
47856;SDS011;33618;49.972;8.242;2023-11-19T09:04:00;3.78;;;1.38;;
47856;SDS011;33618;49.972;8.242;2023-11-19T09:06:27;3.55;;;1.20;;
47856;SDS011;33618;49.972;8.242;2023-11-19T09:08:54;3.13;;;1.52;;
47856;SDS011;33618;49.972;8.242;2023-11-19T09:11:26;5.93;;;1.48;;
47856;SDS011;33618;49.972;8.242;2023-11-19T09:13:53;4.45;;;1.50;;
47856;SDS011;33618;49.972;8.242;2023-11-19T09:16:20;4.05;;;1.42;;
47856;SDS011;33618;49.972;8.242;2023-11-19T09:18:48;3.03;;;1.50;;
47856;SDS011;33618;49.972;8.242;2023-11-19T09:21:15;5.10;;;1.77;;
47856;SDS011;33618;49.972;8.242;2023-11-19T09:23:42;5.18;;;1.50;;
47856;SDS011;33618;49.972;8.242;2023-11-19T09:26:10;4.47;;;1.95;;
47856;SDS011;33618;49.972;8.242;2023-11-19T09:28:37;5.43;;;1.70;;
47856;SDS011;33618;49.972;8.242;2023-11-19T09:31:17;2.90;;;1.38;;
47856;SDS011;33618;49.972;8.242;2023-11-19T09:33:45;4.93;;;1.40;;
47856;SDS011;33618;49.972;8.242;2023-11-19T09:36:12;3.85;;;1.42;;
47856;SDS011;33618;49.972;8.242;2023-11-19T09:38:43;4.50;;;1.40;;
47856;SDS011;33618;49.972;8.242;2023-11-19T09:41:10;6.55;;;1.60;;
47856;SDS011;33618;49.972;8.242;2023-11-19T09:43:40;6.18;;;1.80;;
47856;SDS011;33618;49.972;8.242;2023-11-19T09:46:12;4.10;;;1.73;;
47856;SDS011;33618;49.972;8.242;2023-11-19T09:48:42;2.85;;;1.63;;
47856;SDS011;33618;49.972;8.242;2023-11-19T09:51:10;5.25;;;1.60;;
47856;SDS011;33618;49.972;8.242;2023-11-19T09:53:37;4.82;;;2.00;;
47856;SDS011;33618;49.972;8.242;2023-11-19T09:56:05;7.18;;;2.10;;
47856;SDS011;33618;49.972;8.242;2023-11-19T09:58:32;7.55;;;1.63;;
47856;SDS011;33618;49.972;8.242;2023-11-19T10:00:59;8.48;;;1.90;;
47856;SDS011;33618;49.972;8.242;2023-11-19T10:03:32;10.07;;;2.08;;
47856;SDS011;33618;49.972;8.242;2023-11-19T10:06:07;7.30;;;1.95;;
47856;SDS011;33618;49.972;8.242;2023-11-19T10:08:37;5.65;;;2.08;;
47856;SDS011;33618;49.972;8.242;2023-11-19T10:11:06;5.68;;;1.83;;
47856;SDS011;33618;49.972;8.242;2023-11-19T10:13:36;9.02;;;2.00;;
47856;SDS011;33618;49.972;8.242;2023-11-19T10:16:07;4.57;;;1.77;;
47856;SDS011;33618;49.972;8.242;2023-11-19T10:18:47;9.98;;;2.10;;
47856;SDS011;33618;49.972;8.242;2023-11-19T10:21:19;5.75;;;1.95;;
47856;SDS011;33618;49.972;8.242;2023-11-19T10:23:49;5.75;;;1.80;;
47856;SDS011;33618;49.972;8.242;2023-11-19T10:26:18;5.15;;;1.63;;
47856;SDS011;33618;49.972;8.242;2023-11-19T10:28:46;4.35;;;1.92;;
47856;SDS011;33618;49.972;8.242;2023-11-19T10:31:14;5.88;;;2.00;;
47856;SDS011;33618;49.972;8.242;2023-11-19T10:33:42;6.57;;;2.30;;
47856;SDS011;33618;49.972;8.242;2023-11-19T10:36:11;6.13;;;2.03;;
47856;SDS011;33618;49.972;8.242;2023-11-19T10:38:40;6.60;;;1.67;;
47856;SDS011;33618;49.972;8.242;2023-11-19T10:41:26;8.85;;;1.90;;
47856;SDS011;33618;49.972;8.242;2023-11-19T10:43:53;5.78;;;1.90;;
47856;SDS011;33618;49.972;8.242;2023-11-19T10:46:21;6.68;;;2.05;;
47856;SDS011;33618;49.972;8.242;2023-11-19T10:48:49;8.13;;;1.90;;
47856;SDS011;33618;49.972;8.242;2023-11-19T10:51:19;5.18;;;2.00;;
47856;SDS011;33618;49.972;8.242;2023-11-19T10:53:48;6.35;;;1.88;;
47856;SDS011;33618;49.972;8.242;2023-11-19T10:56:17;5.28;;;1.90;;
47856;SDS011;33618;49.972;8.242;2023-11-19T10:58:49;6.05;;;1.95;;
47856;SDS011;33618;49.972;8.242;2023-11-19T11:01:22;6.50;;;2.08;;
47856;SDS011;33618;49.972;8.242;2023-11-19T11:03:52;8.27;;;1.92;;
47856;SDS011;33618;49.972;8.242;2023-11-19T11:06:22;6.00;;;2.10;;
47856;SDS011;33618;49.972;8.242;2023-11-19T11:08:50;10.05;;;1.90;;
47856;SDS011;33618;49.972;8.242;2023-11-19T11:11:18;6.10;;;2.00;;
47856;SDS011;33618;49.972;8.242;2023-11-19T11:13:50;8.20;;;2.10;;
47856;SDS011;33618;49.972;8.242;2023-11-19T11:16:19;5.22;;;1.83;;
47856;SDS011;33618;49.972;8.242;2023-11-19T11:18:48;6.95;;;1.90;;
47856;SDS011;33618;49.972;8.242;2023-11-19T11:21:19;7.18;;;1.95;;
47856;SDS011;33618;49.972;8.242;2023-11-19T11:24:12;7.07;;;2.08;;
47856;SDS011;33618;49.972;8.242;2023-11-19T11:32:43;6.13;;;1.52;;
47856;SDS011;33618;49.972;8.242;2023-11-19T11:38:08;3.38;;;1.45;;
47856;SDS011;33618;49.972;8.242;2023-11-19T11:40:35;5.25;;;1.50;;
47856;SDS011;33618;49.972;8.242;2023-11-19T11:43:02;4.63;;;1.40;;
47856;SDS011;33618;49.972;8.242;2023-11-19T11:45:35;3.55;;;1.45;;
47856;SDS011;33618;49.972;8.242;2023-11-19T11:50:50;3.08;;;1.35;;
47856;SDS011;33618;49.972;8.242;2023-11-19T11:53:18;2.83;;;1.20;;
47856;SDS011;33618;49.972;8.242;2023-11-19T11:58:20;4.18;;;1.30;;
47856;SDS011;33618;49.972;8.242;2023-11-19T12:01:01;5.22;;;1.52;;
47856;SDS011;33618;49.972;8.242;2023-11-19T12:03:32;4.15;;;1.40;;
47856;SDS011;33618;49.972;8.242;2023-11-19T12:06:00;4.75;;;1.65;;
47856;SDS011;33618;49.972;8.242;2023-11-19T12:08:27;3.20;;;1.17;;
47856;SDS011;33618;49.972;8.242;2023-11-19T12:10:56;4.22;;;1.40;;
47856;SDS011;33618;49.972;8.242;2023-11-19T12:13:26;5.78;;;1.50;;
47856;SDS011;33618;49.972;8.242;2023-11-19T12:16:09;5.47;;;1.60;;
47856;SDS011;33618;49.972;8.242;2023-11-19T12:18:38;7.38;;;1.80;;
47856;SDS011;33618;49.972;8.242;2023-11-19T12:21:07;6.53;;;1.80;;
47856;SDS011;33618;49.972;8.242;2023-11-19T12:23:43;5.25;;;1.40;;
47856;SDS011;33618;49.972;8.242;2023-11-19T12:26:36;5.53;;;1.50;;
47856;SDS011;33618;49.972;8.242;2023-11-19T12:29:04;5.90;;;1.67;;
47856;SDS011;33618;49.972;8.242;2023-11-19T12:31:34;7.05;;;2.08;;
47856;SDS011;33618;49.972;8.242;2023-11-19T12:34:05;6.07;;;1.98;;
47856;SDS011;33618;49.972;8.242;2023-11-19T12:36:33;5.50;;;1.70;;
47856;SDS011;33618;49.972;8.242;2023-11-19T12:39:01;5.63;;;1.58;;
47856;SDS011;33618;49.972;8.242;2023-11-19T12:41:28;4.28;;;1.80;;
47856;SDS011;33618;49.972;8.242;2023-11-19T12:44:08;8.98;;;2.00;;
47856;SDS011;33618;49.972;8.242;2023-11-19T12:46:37;5.30;;;1.50;;
47856;SDS011;33618;49.972;8.242;2023-11-19T12:49:04;4.45;;;1.42;;
47856;SDS011;33618;49.972;8.242;2023-11-19T12:51:32;4.82;;;1.83;;
47856;SDS011;33618;49.972;8.242;2023-11-19T12:53:59;5.82;;;1.80;;
47856;SDS011;33618;49.972;8.242;2023-11-19T12:56:26;6.30;;;1.90;;
47856;SDS011;33618;49.972;8.242;2023-11-19T12:58:53;5.93;;;1.80;;
47856;SDS011;33618;49.972;8.242;2023-11-19T13:01:20;7.57;;;1.65;;
47856;SDS011;33618;49.972;8.242;2023-11-19T13:03:47;8.38;;;1.90;;
47856;SDS011;33618;49.972;8.242;2023-11-19T13:06:15;4.10;;;1.60;;
47856;SDS011;33618;49.972;8.242;2023-11-19T13:08:44;6.03;;;1.42;;
47856;SDS011;33618;49.972;8.242;2023-11-19T13:11:12;6.03;;;1.70;;
47856;SDS011;33618;49.972;8.242;2023-11-19T13:16:39;6.93;;;1.83;;
47856;SDS011;33618;49.972;8.242;2023-11-19T13:19:06;4.90;;;1.73;;
47856;SDS011;33618;49.972;8.242;2023-11-19T13:21:35;5.88;;;1.70;;
47856;SDS011;33618;49.972;8.242;2023-11-19T13:24:03;6.28;;;2.10;;
47856;SDS011;33618;49.972;8.242;2023-11-19T13:26:30;6.60;;;2.03;;
47856;SDS011;33618;49.972;8.242;2023-11-19T13:28:57;6.75;;;1.65;;
47856;SDS011;33618;49.972;8.242;2023-11-19T13:31:23;4.90;;;1.75;;
47856;SDS011;33618;49.972;8.242;2023-11-19T13:33:51;5.18;;;2.03;;
47856;SDS011;33618;49.972;8.242;2023-11-19T13:36:18;5.35;;;1.75;;
47856;SDS011;33618;49.972;8.242;2023-11-19T13:38:45;5.60;;;1.58;;
47856;SDS011;33618;49.972;8.242;2023-11-19T13:41:13;8.30;;;1.77;;
47856;SDS011;33618;49.972;8.242;2023-11-19T13:43:40;6.07;;;2.03;;
47856;SDS011;33618;49.972;8.242;2023-11-19T13:46:07;5.93;;;1.67;;
47856;SDS011;33618;49.972;8.242;2023-11-19T13:48:37;5.05;;;1.60;;
47856;SDS011;33618;49.972;8.242;2023-11-19T13:51:04;5.80;;;1.98;;
47856;SDS011;33618;49.972;8.242;2023-11-19T13:53:31;4.60;;;2.03;;
47856;SDS011;33618;49.972;8.242;2023-11-19T13:56:17;6.70;;;1.88;;
47856;SDS011;33618;49.972;8.242;2023-11-19T13:58:44;7.75;;;2.13;;
47856;SDS011;33618;49.972;8.242;2023-11-19T14:01:10;7.32;;;1.80;;
47856;SDS011;33618;49.972;8.242;2023-11-19T14:03:39;5.85;;;1.90;;
47856;SDS011;33618;49.972;8.242;2023-11-19T14:06:06;9.05;;;1.90;;
47856;SDS011;33618;49.972;8.242;2023-11-19T14:08:34;6.30;;;2.33;;
47856;SDS011;33618;49.972;8.242;2023-11-19T14:11:01;4.88;;;1.80;;
47856;SDS011;33618;49.972;8.242;2023-11-19T14:13:29;8.80;;;1.98;;
47856;SDS011;33618;49.972;8.242;2023-11-19T14:15:56;5.30;;;2.20;;
47856;SDS011;33618;49.972;8.242;2023-11-19T14:18:23;7.78;;;2.08;;
47856;SDS011;33618;49.972;8.242;2023-11-19T14:20:50;6.78;;;1.80;;
47856;SDS011;33618;49.972;8.242;2023-11-19T14:23:16;9.40;;;2.00;;
47856;SDS011;33618;49.972;8.242;2023-11-19T14:25:43;7.38;;;2.03;;
47856;SDS011;33618;49.972;8.242;2023-11-19T14:28:10;7.15;;;1.77;;
47856;SDS011;33618;49.972;8.242;2023-11-19T14:30:37;3.65;;;1.70;;
47856;SDS011;33618;49.972;8.242;2023-11-19T14:33:04;8.02;;;1.85;;
47856;SDS011;33618;49.972;8.242;2023-11-19T14:35:31;5.47;;;2.00;;
47856;SDS011;33618;49.972;8.242;2023-11-19T14:38:00;5.10;;;1.80;;
47856;SDS011;33618;49.972;8.242;2023-11-19T14:40:31;7.28;;;1.80;;
47856;SDS011;33618;49.972;8.242;2023-11-19T14:43:01;4.68;;;1.60;;
47856;SDS011;33618;49.972;8.242;2023-11-19T14:45:28;5.60;;;1.92;;
47856;SDS011;33618;49.972;8.242;2023-11-19T14:48:04;4.38;;;1.58;;
47856;SDS011;33618;49.972;8.242;2023-11-19T14:50:31;8.23;;;2.28;;
47856;SDS011;33618;49.972;8.242;2023-11-19T14:52:58;9.10;;;2.15;;
47856;SDS011;33618;49.972;8.242;2023-11-19T14:55:25;5.72;;;1.92;;
47856;SDS011;33618;49.972;8.242;2023-11-19T14:57:52;6.82;;;1.90;;
47856;SDS011;33618;49.972;8.242;2023-11-19T15:00:31;7.03;;;1.95;;
47856;SDS011;33618;49.972;8.242;2023-11-19T15:03:00;6.25;;;2.00;;
47856;SDS011;33618;49.972;8.242;2023-11-19T15:05:29;7.00;;;1.88;;
47856;SDS011;33618;49.972;8.242;2023-11-19T15:07:56;8.00;;;2.40;;
47856;SDS011;33618;49.972;8.242;2023-11-19T15:10:23;7.07;;;2.40;;
47856;SDS011;33618;49.972;8.242;2023-11-19T15:12:51;9.80;;;2.10;;
47856;SDS011;33618;49.972;8.242;2023-11-19T15:15:20;4.25;;;1.50;;
47856;SDS011;33618;49.972;8.242;2023-11-19T15:17:50;5.65;;;1.75;;